Aérodrome :
LOGIN :

S'inscrire | Disclaimer

   EN    FR    IT 

 










Légende :    VFR   VFR Marginal   IFR   IFR Intensif   IFR Très Intensif
Visi : 
Plafond : 
>= 8 km
>= 3000ft
5 à 8 km
1000 à 3000 ft
1500m à 5 km
500 à 1000 ft
800 à 1500m
200 à 500 ft
< 800m
< 200 ft
Symboles :   Orages  Brouillard  Fortes neiges  Fortes précipitations  Vent > 20 kt
SIGMETs :   Divers  Orages  Givrage  Turbulence  Onde Orograph.  Cendres Volcan.






- Altitude de l'aérodrome : 160 ft
- Code IATA : FMO


EDDG - Münster Osnabrück Int.

DERNIER METAR :
  • 270420Z 23008KT 9999 BKN007 02/00 Q1004 TEMPO SCT009

METARs EXPIRÉS :
  • 270350Z 23006KT 9999 FEW008 BKN009 02/00 Q1004 TEMPO SCT009
  • 270320Z 23008KT 9999 FEW008 SCT010 02/00 Q1004 NOSIG
  • 270250Z 23011KT 200V260 9999 FEW009 BKN010 BKN049 03/00 Q1004 TEMPO SCT010
  • 270220Z 23009KT 9999 -SHRA FEW010TCU BKN012 BKN042 03/01 Q1004 TEMPO SCT010
  • 270150Z 23009KT 9999 BKN010 BKN048 03/01 Q1004 TEMPO SCT010

TAF AMD TAF EDDG
Valide du 27 à 04h jusqu'au 28 à 00h UTC


270410Z 2704/2724 24009KT 9999 BKN020
TEMPO 2704/2709 BKN008
BECMG 2706/2709 18008KT
BECMG 2712/2715 10005KT
BECMG 2716/2719 27007KT BKN010
TEMPO 2718/2724 4000 SNRA BKN007
PROB40
TEMPO 2718/2724 1400 SN BKN004



MET'MAP, la Météo Aéronautique d'un coup d'oeil ! - Copyright ORBIFLY Décembre 2007 - Disclaimer

ORBIFLY MET'MAP TEAM :

Programmation & Développement : Alexandra Zaïnal
Sur une idée originale de : Baudouin d'Aumeries
Assistance à la programmation : Marc-Olivier Méhu
Soutien technique & logistique : Manuel Goepfert

Contact : metmap@orbifly.com




SOURCES & CREDITS :

   NOAA